Flight Track Log - Related Links

Times and Time Zones

All times are in EDT time to prevent confusion due to time zone crossing. See the CAV519 flight status page for this flight to view local times or setup timezone preferences in your user account.

Time Position Orientation Groundspeed Altitude Reporting Facility
EDT Latitude Longitude Course Direction KTS MPH feet Rate Location/Type
Sun 07:38:23 PM 49.9167 -97.2833 327° Northwest 130 150 2,000  Level Winnipeg Center
Sun 07:40:23 PM 50.0000 -97.3000 353° North 150 173 4,300 1,100 Climbing Winnipeg Center
Sun 07:41:23 PM 50.0333 -97.3500 316° Northwest 150 173 5,300 1,000 Climbing Winnipeg Center
Sun 07:42:23 PM 50.0667 -97.3833 327° Northwest 160 184 6,300 950 Climbing Winnipeg Center
Sun 07:43:00 PM 50.2252 -97.5085 327° Northwest  Level FlightAware Approximate
Sun 07:43:23 PM 50.1167 -97.4167 337° Northwest 170 196 7,200  Level Winnipeg Center
Sun 07:44:23 PM 50.1500 -97.4333 342° North 160 184 8,300 950 Climbing Winnipeg Center
Sun 07:45:23 PM 50.1833 -97.4833 316° Northwest 170 196 9,100 900 Climbing Winnipeg Center
Sun 07:46:23 PM 50.2333 -97.5167 337° Northwest 170 196 10,100 1,050 Climbing Winnipeg Center
Sun 07:47:23 PM 50.2833 -97.5333 348° North 170 196 11,200 1,000 Climbing Winnipeg Center
Sun 07:48:23 PM 50.3167 -97.6000 308° West 170 196 12,100 950 Climbing Winnipeg Center
Sun 07:49:23 PM 50.3667 -97.6167 348° North 170 196 13,100 1,000 Climbing Winnipeg Center
Sun 07:50:23 PM 50.4000 -97.6500 327° Northwest 160 184 14,100 950 Climbing Winnipeg Center
Sun 07:51:23 PM 50.4500 -97.6833 337° Northwest 160 184 15,000 800 Climbing Winnipeg Center
Sun 07:52:23 PM 50.4833 -97.7333 316° Northwest 160 184 15,700 650 Climbing Winnipeg Center
Sun 07:53:23 PM 50.5167 -97.7500 342° North 170 196 16,300 700 Climbing Winnipeg Center
Sun 07:54:23 PM 50.5667 -97.7833 337° Northwest 170 196 17,100 900 Climbing Winnipeg Center
Sun 07:55:23 PM 50.6000 -97.8333 316° Northwest 170 196 18,100 800 Climbing Winnipeg Center
Sun 07:56:23 PM 50.6500 -97.8667 337° Northwest 170 196 18,700 650 Climbing Winnipeg Center
Sun 07:57:23 PM 50.6833 -97.8833 342° North 170 196 19,400 650 Climbing Winnipeg Center
Sun 07:58:23 PM 50.7333 -97.9500 320° Northwest 170 196 20,000 600 Climbing Winnipeg Center
Sun 07:59:23 PM 50.7667 -97.9667 342° North 170 196 20,600 600 Climbing Winnipeg Center
Sun 08:00:23 PM 50.8167 -98.0000 337° Northwest 170 196 21,200 600 Climbing Winnipeg Center
Sun 08:01:23 PM 50.8667 -98.0500 328° Northwest 170 196 21,800 550 Climbing Winnipeg Center
Sun 08:02:23 PM 50.9000 -98.0833 328° Northwest 170 196 22,300 450 Climbing Winnipeg Center
Sun 08:03:23 PM 50.9500 -98.1000 348° North 180 207 22,700 450 Climbing Winnipeg Center
Sun 08:04:23 PM 50.9833 -98.1667 308° West 180 207 23,200 450 Climbing Winnipeg Center
Sun 08:05:23 PM 51.0333 -98.1833 348° North 180 207 23,600 400 Climbing Winnipeg Center
Sun 08:06:23 PM 51.0833 -98.2500 320° Northwest 180 207 24,000 200 Climbing Winnipeg Center
Sun 08:07:23 PM 51.1167 -98.2667 343° North 180 207 24,000  Level Winnipeg Center
Sun 08:08:23 PM 51.1667 -98.3000 337° Northwest 190 219 24,000  Level Winnipeg Center
Sun 08:09:23 PM 51.2167 -98.3500 328° Northwest 200 230 24,000  Level Winnipeg Center
Sun 08:10:23 PM 51.2667 -98.4167 320° Northwest 210 242 24,000  Level Winnipeg Center
Sun 08:11:23 PM 51.3333 -98.4333 351° North 220 253 24,000  Level Winnipeg Center
Sun 08:12:23 PM 51.3833 -98.5000 320° Northwest 210 242 24,000  Level Winnipeg Center
Sun 08:13:23 PM 51.4167 -98.5500 317° Northwest 210 242 24,000  Level Winnipeg Center
Sun 08:14:23 PM 51.4667 -98.5833 337° Northwest 210 242 24,000  Level Winnipeg Center
Sun 08:15:23 PM 51.5167 -98.6333 328° Northwest 210 242 24,000  Level Winnipeg Center
Sun 08:16:23 PM 51.5667 -98.6833 328° Northwest 210 242 24,000  Level Winnipeg Center
Sun 08:17:23 PM 51.6167 -98.7167 338° Northwest 210 242 24,000  Level Winnipeg Center
Sun 08:18:23 PM 51.6667 -98.7667 328° Northwest 210 242 24,000  Level Winnipeg Center
Sun 08:19:23 PM 51.7167 -98.8000 338° Northwest 210 242 24,000  Level Winnipeg Center
Sun 08:20:23 PM 51.7667 -98.8667 320° Northwest 210 242 24,000  Level Winnipeg Center
Sun 08:21:23 PM 51.8333 -98.9167 335° Northwest 210 242 24,000  Level Winnipeg Center
Sun 08:22:23 PM 51.8833 -98.9500 338° Northwest 210 242 24,000  Level Winnipeg Center
Sun 08:23:23 PM 51.9333 -99.0000 328° Northwest 210 242 24,000  Level Winnipeg Center
Sun 08:24:23 PM 51.9833 -99.0500 328° Northwest 210 242 24,000  Level Winnipeg Center
Sun 08:25:23 PM 52.0333 -99.0833 338° Northwest 200 230 24,000  Level Winnipeg Center
Sun 08:26:23 PM 52.0833 -99.1500 321° Northwest 200 230 24,000  Level Winnipeg Center
Sun 08:27:23 PM 52.1333 -99.1667 348° North 200 230 24,000  Level Winnipeg Center
Sun 08:28:23 PM 52.1833 -99.2333 321° Northwest 200 230 24,000  Level Winnipeg Center
Sun 08:29:23 PM 52.2333 -99.2667 338° Northwest 200 230 24,000  Level Winnipeg Center
Sun 08:30:23 PM 52.2833 -99.3167 329° Northwest 200 230 24,000  Level Winnipeg Center
Sun 08:31:23 PM 52.3167 -99.3667 317° Northwest 210 242 24,000  Level Winnipeg Center
Sun 08:32:23 PM 52.3833 -99.4000 343° North 200 230 24,000  Level Winnipeg Center
Sun 08:33:23 PM 52.4167 -99.4667 309° West 200 230 24,000  Level Winnipeg Center
Sun 08:34:23 PM 52.4667 -99.5000 338° Northwest 200 230 24,000  Level Winnipeg Center
Sun 08:35:23 PM 52.5167 -99.5500 329° Northwest 200 230 24,000  Level Winnipeg Center
Sun 08:36:23 PM 52.5667 -99.5833 338° Northwest 200 230 24,000  Level Winnipeg Center
Sun 08:37:23 PM 52.6167 -99.6333 329° Northwest 200 230 24,000  Level Winnipeg Center
Sun 08:38:23 PM 52.6667 -99.6667 338° Northwest 200 230 24,000  Level Winnipeg Center
Sun 08:39:23 PM 52.7167 -99.7333 321° Northwest 200 230 24,000  Level Winnipeg Center
Sun 08:40:23 PM 52.7667 -99.7667 338° Northwest 200 230 24,000  Level Winnipeg Center
Sun 08:41:23 PM 52.8000 -99.8167 318° Northwest 200 230 24,000  Level Winnipeg Center
Sun 08:42:23 PM 52.8333 -99.8500 329° Northwest 190 219 24,000  Level Winnipeg Center
Sun 08:43:23 PM 52.8833 -99.9000 329° Northwest 190 219 24,000  Level Winnipeg Center
Sun 08:44:23 PM 52.9333 -99.9667 321° Northwest 200 230 24,000  Level Winnipeg Center
Sun 08:45:23 PM 52.9833 -100.0000 338° Northwest 200 230 24,000  Level Winnipeg Center
Sun 08:46:23 PM 53.0333 -100.0333 338° Northwest 200 230 24,000  Level Winnipeg Center
Sun 08:47:23 PM 53.0833 -100.0833 329° Northwest 200 230 24,000  Level Winnipeg Center
Sun 08:49:23 PM 53.1833 -100.1833 329° Northwest 210 242 24,000  Level Winnipeg Center
Sun 08:51:45 PM 53.3000 -100.3000 329° Northwest 180 207 24,000  Level Winnipeg Center
Sun 08:52:45 PM 53.3333 -100.3333 329° Northwest 210 242 24,000  Level Winnipeg Center
Sun 08:53:45 PM 53.3833 -100.3833 329° Northwest 190 219 24,000  Level Winnipeg Center
Sun 08:54:45 PM 53.4333 -100.4167 338° Northwest 180 207 24,000  Level Winnipeg Center
Sun 08:55:45 PM 53.4833 -100.4500 338° Northwest 190 219 24,000  Level Winnipeg Center
Sun 08:56:45 PM 53.5333 -100.5167 322° Northwest 200 230 24,000  Level Winnipeg Center
Sun 08:57:45 PM 53.5667 -100.5667 318° Northwest 200 230 24,000 -200 Level Winnipeg Center
Sun 08:58:45 PM 53.6167 -100.6000 338° Northwest 200 230 23,600 -750 Descending Winnipeg Center
Sun 08:59:45 PM 53.6667 -100.6667 322° Northwest 220 253 22,500 -1,200 Descending Winnipeg Center
Sun 09:00:45 PM 53.7333 -100.7333 329° Northwest 240 276 21,200 -1,250 Descending Winnipeg Center
Sun 09:01:45 PM 53.7833 -100.8167 315° West 250 288 20,000 -1,250 Descending Winnipeg Center
Sun 09:02:45 PM 53.8500 -100.8833 329° Northwest 260 299 18,700 -1,300 Descending Winnipeg Center
Sun 09:03:45 PM 53.9000 -100.9500 322° Northwest 250 288 17,400 -1,250 Descending Winnipeg Center
Sun 09:04:45 PM 53.9667 -101.0000 336° Northwest 220 253 16,200 -1,200 Descending Winnipeg Center
Sun 09:06:00 PM 54.0392 -101.0224 330° Northwest  Level FlightAware Approximate
Sun 09:13:00 PM 54.3737 -101.3599 327° Northwest  Level FlightAware Approximate
Sun 09:14:00 PM 54.4201 -101.4120 327° Northwest  Level FlightAware Approximate
Sun 09:15:00 PM 54.4665 -101.4643 327° Northwest  Level FlightAware Approximate
Sun 09:16:00 PM 54.5139 -101.5139 330° Northwest  Level FlightAware Approximate
Sun 09:17:00 PM 54.5619 -101.5619 330° Northwest  Level FlightAware Approximate
Sun 09:18:00 PM 54.6099 -101.6099 330° Northwest  Level FlightAware Approximate
Sun 09:19:00 PM 54.6579 -101.6579 330° Northwest  Level FlightAware Approximate
Sun 09:20:00 PM 54.6667 -101.6667 330° Northwest  Level FlightAware Approximate
Sun 09:21:00 PM 54.6781 -101.6817 330° Northwest  Level Estimated
Sun 09:22:00 PM 54.6781 -101.6817 330° Northwest  Level Estimated
Sun 09:23:00 PM 54.6781 -101.6817 330° Northwest  Level Estimated
Sun 09:24:00 PM 54.6781 -101.6817 330° Northwest  Level Estimated
Sun 09:25:00 PM 54.6781 -101.6817 330° Northwest  Level Estimated
Sun 09:26:00 PM 54.6781 -101.6817 330° Northwest  Level Estimated
Sun 09:27:00 PM 54.6781 -101.6817 330° Northwest  Level Estimated
Sun 09:28:00 PM 54.6781 -101.6817 330° Northwest  Level Estimated
Sun 09:29:00 PM 54.6781 -101.6817 330° Northwest  Level Estimated
Sun 09:30:00 PM 54.6781 -101.6817 330° Northwest  Level Estimated

Login

Don't have an account? Register now (free) for customized features, flight alerts, and more!